Time;durP1;ratioP1;P1;durP2;ratioP2;P2;SDS_P1;SDS_P2;PMS_P1;PMS_P2;Temp;Humidity;BMP_temperature;BMP_pressure;BME280_temperature;BME280_humidity;BME280_pressure;Samples;Min_cycle;Max_cycle;Signal;HPM_P1;HPM_P2
2021/09/18 00:07:58;;;;;;;7.07;2.30;;;14.30;99.90;;;;;;20712558;28;20549;-83
2021/09/18 00:18:00;;;;;;;5.68;2.22;;;14.20;99.90;;;;;;20666077;28;20078;-82
2021/09/18 00:28:01;;;;;;;5.53;2.45;;;14.10;99.90;;;;;;20673374;28;20054;-82
2021/09/18 00:38:06;;;;;;;5.43;2.83;;;14.30;99.90;;;;;;20710741;28;20101;-82
2021/09/18 00:48:07;;;;;;;7.00;2.88;;;14.30;99.90;;;;;;20723066;28;20040;-82
2021/09/18 00:58:08;;;;;;;5.97;2.70;;;14.20;99.90;;;;;;20668234;28;20068;-82
2021/09/18 01:08:12;;;;;;;5.82;3.03;;;14.20;99.90;;;;;;20656985;28;20070;-83
2021/09/18 01:18:14;;;;;;;6.40;2.60;;;14.00;99.90;;;;;;20649148;28;20070;-83
2021/09/18 01:28:16;;;;;;;6.72;2.72;;;13.90;99.90;;;;;;20751910;28;20042;-82
2021/09/18 01:38:18;;;;;;;7.53;3.00;;;13.80;99.90;;;;;;20698173;28;20099;-83
2021/09/18 01:48:20;;;;;;;4.40;2.33;;;13.70;99.90;;;;;;20696495;28;20080;-83
2021/09/18 01:58:22;;;;;;;8.88;3.75;;;13.70;99.90;;;;;;20712940;28;20504;-83
2021/09/18 02:08:24;;;;;;;4.95;2.22;;;13.70;99.90;;;;;;20742535;28;20037;-83
2021/09/18 02:18:25;;;;;;;5.00;2.28;;;13.50;99.90;;;;;;20727692;28;20050;-82
2021/09/18 02:28:26;;;;;;;5.38;2.42;;;13.40;99.90;;;;;;20730871;28;20061;-81
2021/09/18 02:38:27;;;;;;;6.10;2.00;;;13.30;99.90;;;;;;20678978;28;20049;-83
2021/09/18 02:48:28;;;;;;;4.47;2.50;;;13.20;99.90;;;;;;20613765;28;20062;-82
2021/09/18 02:58:29;;;;;;;6.45;2.28;;;13.20;99.90;;;;;;20573499;28;20061;-83
2021/09/18 03:08:30;;;;;;;5.03;1.77;;;13.10;99.90;;;;;;20634497;28;20050;-82
2021/09/18 03:18:32;;;;;;;4.05;2.03;;;13.10;99.90;;;;;;20590984;28;20526;-82
2021/09/18 03:28:33;;;;;;;6.78;1.95;;;13.00;99.90;;;;;;20585562;28;20050;-83
2021/09/18 03:38:34;;;;;;;5.05;1.83;;;13.00;99.90;;;;;;20606958;28;20049;-82
2021/09/18 03:48:36;;;;;;;4.10;1.88;;;13.00;99.90;;;;;;20687140;28;20061;-83
2021/09/18 03:58:37;;;;;;;3.50;1.65;;;12.90;99.90;;;;;;20662839;28;20595;-83
2021/09/18 04:08:38;;;;;;;4.90;1.98;;;12.80;99.90;;;;;;20669396;28;20248;-83
2021/09/18 04:18:39;;;;;;;4.43;2.10;;;12.80;99.90;;;;;;20693587;28;20058;-83
2021/09/18 04:28:40;;;;;;;7.10;2.40;;;12.80;99.90;;;;;;20678798;28;20133;-83
2021/09/18 04:38:41;;;;;;;5.57;2.20;;;12.80;99.90;;;;;;20691653;28;20045;-83
2021/09/18 04:48:42;;;;;;;6.45;2.85;;;12.80;99.90;;;;;;20682570;28;20053;-83
2021/09/18 04:58:45;;;;;;;4.70;2.25;;;12.80;99.90;;;;;;20732735;28;20054;-83
2021/09/18 05:08:46;;;;;;;4.35;2.05;;;12.70;99.90;;;;;;20683282;28;20065;-83
2021/09/18 05:18:47;;;;;;;4.93;1.80;;;12.70;99.90;;;;;;20689659;28;20052;-83
2021/09/18 05:28:51;;;;;;;9.30;2.25;;;12.80;99.90;;;;;;20689288;28;20045;-83
2021/09/18 05:38:53;;;;;;;5.82;1.98;;;12.70;99.90;;;;;;20726901;28;20037;-83
2021/09/18 05:48:54;;;;;;;5.88;2.50;;;12.80;99.90;;;;;;20700463;28;20689;-83
2021/09/18 05:58:55;;;;;;;7.63;2.80;;;12.80;99.90;;;;;;20675610;28;20144;-83
2021/09/18 06:08:56;;;;;;;3.60;1.73;;;13.00;99.90;;;;;;20658575;28;20050;-83
2021/09/18 06:18:57;;;;;;;4.88;2.38;;;13.20;99.90;;;;;;20678846;28;20084;-82
2021/09/18 06:28:58;;;;;;;5.72;2.65;;;13.50;99.90;;;;;;20670115;28;20418;-83
2021/09/18 06:38:59;;;;;;;5.63;2.08;;;13.70;99.90;;;;;;20650677;28;20069;-83
2021/09/18 06:49:00;;;;;;;8.00;2.53;;;13.90;99.90;;;;;;20666371;28;20048;-81
2021/09/18 06:59:02;;;;;;;13.20;4.25;;;14.10;99.90;;;;;;20650191;28;20053;-83
2021/09/18 07:09:03;;;;;;;9.95;3.78;;;14.20;99.90;;;;;;20683277;28;20155;-83
2021/09/18 07:19:04;;;;;;;9.90;2.67;;;14.30;99.90;;;;;;20654901;28;20042;-83
2021/09/18 07:29:06;;;;;;;5.40;1.67;;;14.40;99.90;;;;;;20710209;28;20053;-83
2021/09/18 07:39:07;;;;;;;7.30;2.85;;;14.80;99.90;;;;;;20688132;28;20064;-82
2021/09/18 07:49:09;;;;;;;12.95;4.43;;;15.10;99.90;;;;;;20624243;28;20050;-82
2021/09/18 07:59:10;;;;;;;9.05;3.33;;;15.60;99.90;;;;;;20668269;28;20069;-80
2021/09/18 08:09:11;;;;;;;6.00;2.47;;;16.10;99.90;;;;;;20678177;28;20046;-80
2021/09/18 08:19:12;;;;;;;8.07;3.35;;;16.50;99.90;;;;;;20675461;28;20062;-79
2021/09/18 08:29:14;;;;;;;9.60;3.97;;;16.70;99.90;;;;;;20666528;28;20088;-79
2021/09/18 08:39:15;;;;;;;7.82;3.83;;;16.80;99.90;;;;;;20688416;28;20056;-80
2021/09/18 08:49:17;;;;;;;10.20;3.53;;;17.10;99.90;;;;;;20691810;28;20061;-81
2021/09/18 08:59:18;;;;;;;8.25;3.60;;;17.50;99.90;;;;;;20687335;28;20045;-80
2021/09/18 09:09:19;;;;;;;6.20;2.85;;;17.80;99.90;;;;;;20717726;28;20048;-80
2021/09/18 09:19:20;;;;;;;7.25;2.95;;;18.30;99.90;;;;;;20718952;28;20091;-80
2021/09/18 09:29:58;;;;;;;7.75;2.75;;;18.70;99.90;;;;;;20689396;28;20042;-79
2021/09/18 09:40:06;;;;;;;5.43;2.72;;;18.80;99.90;;;;;;20719175;28;20062;-79
2021/09/18 09:50:08;;;;;;;3.33;1.75;;;18.90;99.90;;;;;;20701519;28;20033;-79
2021/09/18 10:00:15;;;;;;;1.98;1.00;;;19.00;99.90;;;;;;20725442;28;20061;-79
2021/09/18 10:10:16;;;;;;;;;;;19.20;99.90;;;;;;20676218;28;20582;-79
2021/09/18 10:30:30;;;;;;;2.30;1.10;;;19.70;99.90;;;;;;20721196;28;20482;-80
2021/09/18 10:40:31;;;;;;;2.33;0.93;;;19.90;99.90;;;;;;20666828;28;20049;-81
2021/09/18 10:50:37;;;;;;;1.95;0.60;;;20.00;99.90;;;;;;20681356;28;20049;-81
2021/09/18 11:00:41;;;;;;;5.50;0.70;;;19.90;99.90;;;;;;20707191;28;20066;-80
2021/09/18 11:10:51;;;;;;;2.45;0.50;;;20.10;99.90;;;;;;20686939;28;20041;-79
2021/09/18 11:20:58;;;;;;;2.13;0.70;;;20.30;99.90;;;;;;20684818;28;20068;-80
2021/09/18 11:31:00;;;;;;;1.30;0.63;;;20.50;99.90;;;;;;20666276;28;20057;-79
2021/09/18 11:41:14;;;;;;;1.40;0.70;;;20.80;99.90;;;;;;20686075;28;20064;-80
2021/09/18 11:51:15;;;;;;;2.47;1.10;;;20.90;99.90;;;;;;20691115;28;20047;-79
2021/09/18 12:01:17;;;;;;;1.60;0.65;;;21.30;99.90;;;;;;20682242;28;20151;-80
2021/09/18 12:11:19;;;;;;;1.92;0.90;;;22.10;99.90;;;;;;20666157;28;20069;-81
2021/09/18 12:21:33;;;;;;;1.88;0.60;;;22.80;99.90;;;;;;20681741;28;20061;-80
2021/09/18 12:31:35;;;;;;;1.83;0.90;;;23.30;99.90;;;;;;20692481;28;20181;-81
2021/09/18 12:41:39;;;;;;;2.70;1.13;;;23.50;99.90;;;;;;20696120;28;20080;-81
2021/09/18 12:51:44;;;;;;;2.55;0.75;;;23.60;99.90;;;;;;20688349;28;20133;-80
2021/09/18 13:01:48;;;;;;;2.20;1.13;;;23.00;99.90;;;;;;20683791;28;20399;-80
2021/09/18 13:11:52;;;;;;;2.40;0.70;;;22.90;99.90;;;;;;20715846;28;20042;-80
2021/09/18 13:21:53;;;;;;;1.92;0.80;;;22.50;99.90;;;;;;20689068;28;20054;-80
2021/09/18 13:31:54;;;;;;;1.60;0.70;;;22.40;99.90;;;;;;20662551;28;20061;-81
2021/09/18 13:41:56;;;;;;;0.90;0.40;;;22.80;99.90;;;;;;20677908;28;20063;-81
2021/09/18 13:51:58;;;;;;;1.15;0.57;;;22.80;99.90;;;;;;20689780;28;20062;-81
2021/09/18 14:01:59;;;;;;;1.83;0.80;;;22.70;99.90;;;;;;20730482;28;20064;-81
2021/09/18 14:12:01;;;;;;;0.50;0.28;;;23.20;99.90;;;;;;20684128;28;20054;-80
2021/09/18 14:22:05;;;;;;;2.53;0.52;;;23.50;99.90;;;;;;20654804;28;20108;-80
2021/09/18 14:32:06;;;;;;;2.30;0.50;;;23.50;99.90;;;;;;20657942;28;20045;-80
2021/09/18 14:42:07;;;;;;;1.15;0.40;;;23.20;99.90;;;;;;20671226;28;20581;-79
2021/09/18 14:52:08;;;;;;;1.42;0.40;;;23.00;99.90;;;;;;20674573;28;20049;-79
2021/09/18 15:02:15;;;;;;;2.40;0.43;;;22.90;99.90;;;;;;20721825;28;20065;-79
2021/09/18 15:12:17;;;;;;;1.80;0.65;;;22.60;99.90;;;;;;20683876;28;20116;-79
2021/09/18 15:22:19;;;;;;;1.73;0.70;;;22.30;99.90;;;;;;20690562;28;20046;-79
2021/09/18 15:32:20;;;;;;;1.38;0.65;;;22.10;99.90;;;;;;20697863;28;20062;-80
2021/09/18 15:42:27;;;;;;;2.50;0.80;;;21.90;99.90;;;;;;20691456;28;20096;-80
2021/09/18 15:52:28;;;;;;;;;;;21.80;99.90;;;;;;20688835;28;20719;-80
2021/09/18 16:02:30;;;;;;;1.90;0.95;;;21.60;99.90;;;;;;20645383;28;20336;-80
2021/09/18 16:12:31;;;;;;;3.00;1.38;;;21.50;99.90;;;;;;20689258;28;20476;-80
2021/09/18 16:22:32;;;;;;;2.92;1.13;;;21.30;99.90;;;;;;20690065;28;20079;-81
2021/09/18 16:32:34;;;;;;;2.03;1.00;;;21.00;99.90;;;;;;20690839;28;20486;-81
2021/09/18 16:42:35;;;;;;;2.70;1.08;;;20.70;99.90;;;;;;20744907;28;20077;-80
2021/09/18 16:52:36;;;;;;;1.67;0.82;;;20.50;99.90;;;;;;20721730;28;20050;-80
2021/09/18 17:02:38;;;;;;;1.70;0.90;;;20.20;99.90;;;;;;20725816;28;20046;-81
2021/09/18 17:12:40;;;;;;;2.55;1.30;;;20.00;99.90;;;;;;20727602;28;20038;-80
2021/09/18 17:22:42;;;;;;;3.53;1.95;;;19.80;99.90;;;;;;20743695;28;20054;-80
2021/09/18 17:32:43;;;;;;;4.45;1.90;;;19.60;99.90;;;;;;20669599;28;20055;-80
2021/09/18 17:42:44;;;;;;;5.03;2.15;;;19.40;99.90;;;;;;20654059;28;20053;-80
2021/09/18 17:52:46;;;;;;;3.75;1.70;;;19.20;99.90;;;;;;20667498;28;20052;-81
2021/09/18 18:02:47;;;;;;;4.18;2.25;;;18.90;99.90;;;;;;20658679;28;20131;-81
2021/09/18 18:12:48;;;;;;;5.63;2.00;;;18.70;99.90;;;;;;20668932;28;20046;-81
2021/09/18 18:22:50;;;;;;;6.50;2.17;;;18.60;99.90;;;;;;20658638;28;20092;-81
2021/09/18 18:32:51;;;;;;;8.52;2.95;;;18.40;99.90;;;;;;20691705;28;20798;-81
2021/09/18 18:42:52;;;;;;;4.40;2.55;;;18.30;99.90;;;;;;20629040;28;20057;-81
2021/09/18 18:52:53;;;;;;;5.00;1.98;;;18.20;99.90;;;;;;20579398;28;20064;-81
2021/09/18 19:02:54;;;;;;;4.68;2.33;;;18.00;99.90;;;;;;20530434;28;20164;-81
2021/09/18 19:12:56;;;;;;;4.95;2.55;;;18.00;99.90;;;;;;20596134;28;20046;-81
2021/09/18 19:22:57;;;;;;;4.68;2.47;;;17.80;99.90;;;;;;20585699;28;20066;-81
2021/09/18 19:32:58;;;;;;;5.32;2.72;;;17.70;99.90;;;;;;20604681;28;20033;-82
2021/09/18 19:43:00;;;;;;;5.38;2.72;;;17.60;99.90;;;;;;20612359;28;20042;-81
2021/09/18 19:53:01;;;;;;;4.70;2.53;;;17.50;99.90;;;;;;20647191;28;20049;-81
2021/09/18 20:03:03;;;;;;;6.20;3.10;;;17.30;99.90;;;;;;20657499;28;20050;-82
2021/09/18 20:13:04;;;;;;;6.25;2.72;;;17.20;99.90;;;;;;20649057;28;20132;-81
2021/09/18 20:23:05;;;;;;;6.03;2.63;;;17.00;99.90;;;;;;20647479;28;20542;-82
2021/09/18 20:33:07;;;;;;;7.95;3.15;;;16.90;99.90;;;;;;20697553;28;20056;-81
2021/09/18 20:43:08;;;;;;;7.97;2.85;;;16.80;99.90;;;;;;20635145;28;20049;-82
2021/09/18 20:53:09;;;;;;;8.10;3.15;;;16.70;99.90;;;;;;20632256;28;20054;-82
2021/09/18 21:13:31;;;;;;;7.05;3.13;;;16.50;99.90;;;;;;20610936;28;20394;-81
2021/09/18 21:23:32;;;;;;;6.30;2.75;;;16.40;99.90;;;;;;20671965;28;20042;-82
2021/09/18 21:33:34;;;;;;;5.47;2.20;;;16.20;99.90;;;;;;20649223;28;20056;-82
2021/09/18 21:43:35;;;;;;;5.45;2.70;;;16.10;99.90;;;;;;20615759;28;20077;-82
2021/09/18 21:53:36;;;;;;;10.43;3.22;;;16.00;99.90;;;;;;20623458;28;20490;-82
2021/09/18 22:03:37;;;;;;;6.60;2.70;;;15.90;99.90;;;;;;20583041;28;20058;-81
2021/09/18 22:13:38;;;;;;;7.22;2.85;;;15.70;99.90;;;;;;20587354;28;20045;-82
2021/09/18 22:23:41;;;;;;;5.05;2.70;;;15.60;99.90;;;;;;20631565;28;20058;-81
2021/09/18 22:33:43;;;;;;;5.10;2.60;;;15.50;99.90;;;;;;20596743;28;20063;-82
2021/09/18 22:43:44;;;;;;;4.70;2.20;;;15.30;99.90;;;;;;20673400;28;20054;-82
2021/09/18 22:53:45;;;;;;;7.47;2.65;;;15.20;99.90;;;;;;20615009;28;20055;-82
2021/09/18 23:03:46;;;;;;;4.32;2.63;;;15.10;99.90;;;;;;20633189;28;20053;-82
2021/09/18 23:13:48;;;;;;;5.72;2.53;;;15.00;99.90;;;;;;20629475;28;20616;-82
2021/09/18 23:23:49;;;;;;;4.55;2.38;;;14.90;99.90;;;;;;20650688;28;20064;-82
2021/09/18 23:33:50;;;;;;;5.38;2.70;;;14.70;99.90;;;;;;20610405;28;20594;-82
2021/09/18 23:43:51;;;;;;;6.43;2.65;;;14.60;99.90;;;;;;20606610;28;20062;-82
2021/09/18 23:53:53;;;;;;;5.60;2.67;;;14.50;99.90;;;;;;20586465;28;20378;-82
